Time;durP1;ratioP1;P1;durP2;ratioP2;P2;SDS_P1;SDS_P2;PMS_P1;PMS_P2;Temp;Humidity;BMP_temperature;BMP_pressure;BME280_temperature;BME280_humidity;BME280_pressure;Samples;Min_cycle;Max_cycle;Signal;HPM_P1;HPM_P2
2021/07/26 00:00:49;;;;;;;7.88;7.03;;;;;;;;;;4987468;28;20050;-50
2021/07/26 00:03:16;;;;;;;8.65;7.45;;;;;;;;;;4995629;28;20130;-51
2021/07/26 00:05:42;;;;;;;8.10;7.15;;;;;;;;;;5000483;28;20064;-45
2021/07/26 00:08:09;;;;;;;8.93;7.30;;;;;;;;;;5010464;28;20084;-49
2021/07/26 00:10:36;;;;;;;9.32;7.55;;;;;;;;;;5009239;28;20042;-50
2021/07/26 00:13:03;;;;;;;9.45;7.57;;;;;;;;;;5006478;28;20038;-46
2021/07/26 00:15:30;;;;;;;9.63;6.93;;;;;;;;;;4991346;28;20392;-48
2021/07/26 00:17:56;;;;;;;8.90;7.22;;;;;;;;;;4991066;28;20043;-51
2021/07/26 00:20:23;;;;;;;10.05;7.10;;;;;;;;;;4992093;28;20084;-47
2021/07/26 00:22:50;;;;;;;9.05;7.30;;;;;;;;;;4993655;28;20047;-51
2021/07/26 00:25:17;;;;;;;9.25;7.65;;;;;;;;;;4995386;28;20052;-49
2021/07/26 00:27:44;;;;;;;9.10;7.70;;;;;;;;;;4988375;28;20043;-47
2021/07/26 00:30:11;;;;;;;8.43;7.35;;;;;;;;;;4981936;28;20050;-45
2021/07/26 00:32:37;;;;;;;10.45;8.35;;;;;;;;;;4983956;28;20133;-47
2021/07/26 00:35:04;;;;;;;8.30;7.40;;;;;;;;;;4991614;28;20050;-45
2021/07/26 00:37:31;;;;;;;10.15;7.40;;;;;;;;;;4990371;28;20038;-45
2021/07/26 00:39:59;;;;;;;8.63;7.18;;;;;;;;;;4988446;28;20038;-46
2021/07/26 00:42:26;;;;;;;10.60;7.15;;;;;;;;;;4995651;28;20042;-45
2021/07/26 00:44:53;;;;;;;9.23;7.30;;;;;;;;;;5005332;28;20069;-47
2021/07/26 00:47:20;;;;;;;9.18;7.60;;;;;;;;;;5011014;28;20042;-47
2021/07/26 00:49:46;;;;;;;9.25;7.63;;;;;;;;;;4995900;28;20492;-49
2021/07/26 00:52:13;;;;;;;12.10;7.30;;;;;;;;;;4993971;28;20077;-47
2021/07/26 00:54:40;;;;;;;9.48;7.00;;;;;;;;;;4986070;28;20126;-47
2021/07/26 00:57:08;;;;;;;8.68;7.28;;;;;;;;;;4989281;28;20077;-49
2021/07/26 00:59:35;;;;;;;7.80;7.00;;;;;;;;;;4988532;28;20047;-48
2021/07/26 01:02:02;;;;;;;8.65;7.30;;;;;;;;;;4995284;28;20070;-49
2021/07/26 01:04:29;;;;;;;11.05;7.40;;;;;;;;;;4998961;28;20046;-43
2021/07/26 01:06:56;;;;;;;8.95;7.20;;;;;;;;;;4994423;28;20053;-50
2021/07/26 01:09:23;;;;;;;9.57;7.22;;;;;;;;;;5001869;28;20038;-49
2021/07/26 01:11:50;;;;;;;8.93;7.55;;;;;;;;;;4993192;28;20050;-49
2021/07/26 01:14:17;;;;;;;8.73;7.25;;;;;;;;;;4996499;28;20064;-46
2021/07/26 01:16:44;;;;;;;8.48;7.43;;;;;;;;;;5013173;28;20061;-47
2021/07/26 01:19:11;;;;;;;10.57;7.20;;;;;;;;;;4992455;28;20032;-46
2021/07/26 01:21:38;;;;;;;8.60;7.30;;;;;;;;;;4992546;28;20084;-49
2021/07/26 01:24:05;;;;;;;9.45;7.43;;;;;;;;;;4997280;28;20113;-45
2021/07/26 01:26:32;;;;;;;7.68;6.70;;;;;;;;;;5003391;28;20093;-47
2021/07/26 01:29:01;;;;;;;8.10;7.18;;;;;;;;;;4983393;28;20056;-48
2021/07/26 01:31:28;;;;;;;8.32;7.00;;;;;;;;;;4992078;28;20093;-50
2021/07/26 01:33:54;;;;;;;7.53;6.65;;;;;;;;;;4987794;28;20051;-51
2021/07/26 01:36:22;;;;;;;8.38;6.35;;;;;;;;;;5003435;28;20452;-47
2021/07/26 01:38:52;;;;;;;9.73;6.45;;;;;;;;;;4991899;28;20048;-49
2021/07/26 01:41:24;;;;;;;10.02;7.00;;;;;;;;;;4999081;28;20046;-50
2021/07/26 01:44:10;;;;;;;8.57;7.43;;;;;;;;;;4993386;28;20058;-49
2021/07/26 01:46:40;;;;;;;8.82;6.90;;;;;;;;;;4989962;28;20050;-48
2021/07/26 01:49:19;;;;;;;10.48;7.53;;;;;;;;;;4991156;28;20129;-44
2021/07/26 01:51:45;;;;;;;11.13;7.82;;;;;;;;;;5005492;28;20133;-47
2021/07/26 01:54:12;;;;;;;9.85;7.43;;;;;;;;;;4994253;28;20522;-45
2021/07/26 01:56:39;;;;;;;6.93;6.18;;;;;;;;;;4992616;28;20136;-44
2021/07/26 01:59:06;;;;;;;7.90;6.63;;;;;;;;;;4992140;28;20209;-50
2021/07/26 02:01:33;;;;;;;8.52;6.65;;;;;;;;;;4989357;28;20052;-45
2021/07/26 02:04:00;;;;;;;8.60;6.80;;;;;;;;;;4992371;28;20395;-50
2021/07/26 02:06:27;;;;;;;6.82;6.03;;;;;;;;;;4991505;28;20415;-47
2021/07/26 02:08:54;;;;;;;9.57;6.90;;;;;;;;;;4982439;28;20053;-47
2021/07/26 02:11:22;;;;;;;6.90;6.20;;;;;;;;;;4998959;28;20517;-47
2021/07/26 02:13:49;;;;;;;8.70;6.30;;;;;;;;;;4995997;28;20038;-46
2021/07/26 02:16:16;;;;;;;7.68;6.85;;;;;;;;;;4990058;28;20055;-47
2021/07/26 02:18:42;;;;;;;9.30;7.05;;;;;;;;;;5000968;28;20129;-46
2021/07/26 02:21:09;;;;;;;8.35;6.50;;;;;;;;;;4993149;28;20048;-46
2021/07/26 02:23:36;;;;;;;8.68;6.90;;;;;;;;;;4998731;28;20048;-46
2021/07/26 02:26:03;;;;;;;8.75;6.63;;;;;;;;;;4988732;28;20054;-51
2021/07/26 02:28:29;;;;;;;7.93;6.20;;;;;;;;;;4993445;28;20468;-50
2021/07/26 02:30:56;;;;;;;10.02;7.10;;;;;;;;;;4983656;28;20122;-46
2021/07/26 02:33:23;;;;;;;8.98;6.70;;;;;;;;;;4992018;28;20467;-45
2021/07/26 02:35:50;;;;;;;7.93;6.53;;;;;;;;;;4991012;28;20046;-46
2021/07/26 02:38:17;;;;;;;8.43;6.68;;;;;;;;;;4988956;28;20053;-45
2021/07/26 02:40:43;;;;;;;8.45;6.13;;;;;;;;;;4974219;28;20568;-49
2021/07/26 02:43:10;;;;;;;8.77;6.55;;;;;;;;;;4991045;28;20129;-47
2021/07/26 02:45:37;;;;;;;9.57;6.13;;;;;;;;;;5003850;28;20122;-44
2021/07/26 02:48:04;;;;;;;8.02;5.80;;;;;;;;;;5000520;28;20068;-44
2021/07/26 02:50:30;;;;;;;6.95;6.03;;;;;;;;;;4993994;28;20042;-44
2021/07/26 02:53:00;;;;;;;7.55;5.80;;;;;;;;;;4992445;28;20043;-44
2021/07/26 02:55:29;;;;;;;6.80;5.82;;;;;;;;;;4993967;28;20134;-45
2021/07/26 02:57:59;;;;;;;10.85;6.53;;;;;;;;;;4989840;28;20038;-44
2021/07/26 03:00:25;;;;;;;6.88;5.55;;;;;;;;;;4987721;28;20128;-44
2021/07/26 03:02:52;;;;;;;7.05;6.00;;;;;;;;;;4991305;28;20042;-46
2021/07/26 03:05:19;;;;;;;5.80;5.20;;;;;;;;;;4994743;28;20458;-47
2021/07/26 03:07:46;;;;;;;6.70;5.40;;;;;;;;;;4990811;28;20042;-45
2021/07/26 03:10:13;;;;;;;7.47;5.25;;;;;;;;;;4991606;28;20142;-46
2021/07/26 03:12:39;;;;;;;8.57;5.20;;;;;;;;;;4998539;28;20054;-46
2021/07/26 03:15:08;;;;;;;6.82;5.25;;;;;;;;;;4992964;28;20149;-48
2021/07/26 03:17:37;;;;;;;6.35;5.05;;;;;;;;;;4980383;28;20431;-48
2021/07/26 03:20:05;;;;;;;6.57;4.88;;;;;;;;;;4992174;28;20043;-48
2021/07/26 03:22:50;;;;;;;5.82;5.05;;;;;;;;;;5011511;28;20046;-46
2021/07/26 03:25:18;;;;;;;5.65;5.05;;;;;;;;;;4987848;28;20522;-46
2021/07/26 03:27:46;;;;;;;7.95;5.18;;;;;;;;;;4994625;28;20038;-47
2021/07/26 03:30:13;;;;;;;6.65;4.93;;;;;;;;;;4997199;28;20136;-48
2021/07/26 03:32:39;;;;;;;6.05;4.75;;;;;;;;;;4993023;28;20042;-50
2021/07/26 03:35:06;;;;;;;7.63;5.07;;;;;;;;;;4990987;28;20452;-47
2021/07/26 03:37:33;;;;;;;5.72;4.88;;;;;;;;;;5007332;28;20064;-47
2021/07/26 03:40:00;;;;;;;5.80;4.75;;;;;;;;;;4987766;28;20054;-45
2021/07/26 03:42:26;;;;;;;7.78;5.15;;;;;;;;;;4992468;28;20151;-46
2021/07/26 03:44:56;;;;;;;9.00;5.40;;;;;;;;;;4992923;28;20038;-46
2021/07/26 03:47:24;;;;;;;8.43;5.40;;;;;;;;;;4992215;28;20133;-46
2021/07/26 03:49:51;;;;;;;6.40;5.25;;;;;;;;;;4992355;28;20072;-51
2021/07/26 03:52:18;;;;;;;6.68;5.60;;;;;;;;;;5002986;28;20152;-47
2021/07/26 03:54:45;;;;;;;8.60;5.43;;;;;;;;;;4998708;28;20053;-46
2021/07/26 03:57:12;;;;;;;6.28;5.22;;;;;;;;;;4994961;28;20578;-48
2021/07/26 03:59:39;;;;;;;7.45;5.32;;;;;;;;;;4988397;28;20134;-48
2021/07/26 04:02:05;;;;;;;7.25;5.35;;;;;;;;;;4990772;28;20038;-46
2021/07/26 04:04:32;;;;;;;6.50;5.07;;;;;;;;;;5000214;28;20039;-47
2021/07/26 04:07:02;;;;;;;8.98;5.40;;;;;;;;;;5003972;28;20100;-45
2021/07/26 04:09:37;;;;;;;6.90;5.28;;;;;;;;;;4990696;28;20046;-47
2021/07/26 04:12:07;;;;;;;6.63;4.60;;;;;;;;;;4991044;28;20053;-45
2021/07/26 04:14:39;;;;;;;5.97;4.70;;;;;;;;;;5001027;28;20061;-46
2021/07/26 04:17:06;;;;;;;5.32;4.68;;;;;;;;;;4987830;28;20053;-47
2021/07/26 04:19:33;;;;;;;7.88;5.30;;;;;;;;;;5000885;28;20395;-47
2021/07/26 04:22:00;;;;;;;7.63;4.90;;;;;;;;;;4995227;28;20109;-47
2021/07/26 04:24:27;;;;;;;6.93;5.15;;;;;;;;;;4996302;28;20130;-47
2021/07/26 04:26:54;;;;;;;6.13;4.75;;;;;;;;;;4995643;28;20400;-47
2021/07/26 04:29:39;;;;;;;7.45;5.03;;;;;;;;;;4994513;28;20054;-46
2021/07/26 04:32:07;;;;;;;9.63;5.28;;;;;;;;;;4993996;28;20069;-49
2021/07/26 04:34:36;;;;;;;7.65;4.85;;;;;;;;;;4993039;28;20054;-48
2021/07/26 04:37:03;;;;;;;8.82;5.50;;;;;;;;;;5006066;28;20030;-45
2021/07/26 04:39:30;;;;;;;6.75;4.97;;;;;;;;;;4997232;28;20130;-49
2021/07/26 04:41:56;;;;;;;6.43;5.30;;;;;;;;;;4997152;28;20125;-47
2021/07/26 04:44:23;;;;;;;7.28;5.20;;;;;;;;;;5000909;28;20038;-45
2021/07/26 04:46:50;;;;;;;7.68;5.55;;;;;;;;;;4995697;28;20652;-48
2021/07/26 04:49:16;;;;;;;7.82;5.25;;;;;;;;;;4995433;28;20170;-49
2021/07/26 04:51:43;;;;;;;7.20;5.22;;;;;;;;;;4994648;28;20048;-49
2021/07/26 04:54:10;;;;;;;7.18;5.93;;;;;;;;;;4994663;28;20487;-46
2021/07/26 04:56:40;;;;;;;10.18;5.68;;;;;;;;;;4995631;28;20051;-45
2021/07/26 04:59:14;;;;;;;6.53;5.65;;;;;;;;;;4991383;28;20089;-47
2021/07/26 05:01:41;;;;;;;9.55;6.07;;;;;;;;;;5000426;28;20066;-48
2021/07/26 05:04:08;;;;;;;6.43;5.72;;;;;;;;;;4995372;28;20042;-51
2021/07/26 05:06:34;;;;;;;7.00;5.22;;;;;;;;;;4994569;28;20080;-45
2021/07/26 05:09:01;;;;;;;9.15;4.82;;;;;;;;;;5004186;28;20050;-46
2021/07/26 05:11:28;;;;;;;6.05;5.00;;;;;;;;;;4994092;28;20049;-46
2021/07/26 05:13:55;;;;;;;6.28;4.85;;;;;;;;;;4995954;28;20125;-44
2021/07/26 05:16:21;;;;;;;6.03;5.15;;;;;;;;;;4993215;28;20152;-47
2021/07/26 05:18:52;;;;;;;6.85;5.03;;;;;;;;;;4987597;28;20030;-47
2021/07/26 05:21:19;;;;;;;7.30;4.95;;;;;;;;;;5003722;28;20039;-45
2021/07/26 05:23:45;;;;;;;6.03;4.85;;;;;;;;;;4993386;28;20050;-49
2021/07/26 05:26:12;;;;;;;6.03;4.85;;;;;;;;;;4992358;28;20127;-44
2021/07/26 05:28:39;;;;;;;10.02;5.88;;;;;;;;;;4995860;28;20046;-43
2021/07/26 05:31:05;;;;;;;7.80;5.82;;;;;;;;;;4981568;28;20043;-46
2021/07/26 05:33:32;;;;;;;6.97;5.32;;;;;;;;;;5001157;28;20514;-47
2021/07/26 05:35:59;;;;;;;9.82;5.10;;;;;;;;;;4996898;28;20096;-46
2021/07/26 05:38:26;;;;;;;8.23;5.22;;;;;;;;;;5003975;28;20081;-43
2021/07/26 05:40:53;;;;;;;6.15;5.10;;;;;;;;;;4991041;28;20132;-46
2021/07/26 05:43:20;;;;;;;8.57;4.95;;;;;;;;;;4997032;28;20041;-43
2021/07/26 05:45:46;;;;;;;8.15;5.28;;;;;;;;;;4994478;28;20042;-45
2021/07/26 05:48:13;;;;;;;6.55;5.10;;;;;;;;;;4998032;28;20062;-46
2021/07/26 05:50:40;;;;;;;7.68;4.65;;;;;;;;;;4996127;28;20520;-44
2021/07/26 05:53:07;;;;;;;7.95;4.78;;;;;;;;;;4993532;28;20097;-47
2021/07/26 05:55:34;;;;;;;6.40;4.85;;;;;;;;;;4993628;28;20121;-49
2021/07/26 05:58:03;;;;;;;6.57;5.13;;;;;;;;;;4996439;28;20053;-48
2021/07/26 06:00:41;;;;;;;7.65;4.32;;;;;;;;;;4997429;28;20046;-48
2021/07/26 06:03:08;;;;;;;10.18;5.00;;;;;;;;;;4991565;28;20042;-48
2021/07/26 06:05:35;;;;;;;7.47;4.30;;;;;;;;;;4993837;28;20134;-46
2021/07/26 06:08:02;;;;;;;6.80;4.63;;;;;;;;;;4982711;28;20476;-48
2021/07/26 06:10:29;;;;;;;6.45;4.97;;;;;;;;;;4987352;28;20129;-50
2021/07/26 06:12:56;;;;;;;5.72;4.70;;;;;;;;;;4997648;28;20046;-47
2021/07/26 06:15:22;;;;;;;8.48;5.13;;;;;;;;;;5000474;28;20146;-46
2021/07/26 06:17:49;;;;;;;7.03;4.43;;;;;;;;;;4974536;28;20053;-46
2021/07/26 06:20:16;;;;;;;7.93;6.18;;;;;;;;;;4975998;28;20043;-47
2021/07/26 06:22:43;;;;;;;11.07;5.43;;;;;;;;;;4994563;28;20046;-47
2021/07/26 06:25:12;;;;;;;9.70;5.20;;;;;;;;;;4988826;28;20069;-50
2021/07/26 06:27:39;;;;;;;8.30;5.50;;;;;;;;;;4998170;28;20061;-48
2021/07/26 06:30:06;;;;;;;9.38;5.55;;;;;;;;;;4983865;28;20129;-50
2021/07/26 06:32:34;;;;;;;7.55;4.93;;;;;;;;;;4994273;28;20048;-51
2021/07/26 06:35:02;;;;;;;7.15;5.38;;;;;;;;;;4993323;28;20055;-49
2021/07/26 06:37:29;;;;;;;7.53;5.05;;;;;;;;;;4992184;28;20046;-47
2021/07/26 06:39:56;;;;;;;6.55;5.07;;;;;;;;;;4995913;28;20038;-47
2021/07/26 06:42:23;;;;;;;6.60;4.60;;;;;;;;;;4994262;28;20070;-48
2021/07/26 06:44:50;;;;;;;6.90;4.90;;;;;;;;;;4994875;28;20042;-47
2021/07/26 06:47:17;;;;;;;9.13;5.05;;;;;;;;;;4990382;28;20118;-47
2021/07/26 06:49:44;;;;;;;7.30;5.10;;;;;;;;;;5004623;28;20049;-48
2021/07/26 06:52:11;;;;;;;9.13;5.00;;;;;;;;;;5013240;28;20069;-47
2021/07/26 06:54:38;;;;;;;7.47;4.32;;;;;;;;;;5000392;28;20080;-46
2021/07/26 06:57:05;;;;;;;8.27;4.95;;;;;;;;;;5005622;28;20038;-51
2021/07/26 06:59:31;;;;;;;8.88;4.80;;;;;;;;;;4992344;28;20035;-47
2021/07/26 07:01:58;;;;;;;5.70;4.57;;;;;;;;;;4993048;28;20046;-50
2021/07/26 07:04:25;;;;;;;6.72;4.50;;;;;;;;;;4993319;28;20046;-49
2021/07/26 07:06:52;;;;;;;5.97;4.82;;;;;;;;;;4992733;28;20121;-49
2021/07/26 07:09:18;;;;;;;6.70;5.10;;;;;;;;;;4983691;28;20062;-47
2021/07/26 07:11:45;;;;;;;8.65;4.88;;;;;;;;;;4998588;28;20756;-49
2021/07/26 07:14:12;;;;;;;8.35;5.20;;;;;;;;;;5004678;28;20042;-47
2021/07/26 07:16:39;;;;;;;8.13;5.35;;;;;;;;;;5005043;28;20042;-47
2021/07/26 07:19:06;;;;;;;8.35;4.90;;;;;;;;;;4995097;28;20117;-47
2021/07/26 07:21:33;;;;;;;10.93;4.80;;;;;;;;;;4998843;28;20496;-48
2021/07/26 07:24:02;;;;;;;8.70;5.05;;;;;;;;;;4990813;28;20053;-48
2021/07/26 07:26:29;;;;;;;6.03;4.35;;;;;;;;;;4989221;28;20105;-47
2021/07/26 07:28:56;;;;;;;9.75;5.00;;;;;;;;;;4988364;28;20093;-49
2021/07/26 07:31:26;;;;;;;11.13;5.25;;;;;;;;;;4988266;28;20129;-51
2021/07/26 07:33:57;;;;;;;8.48;4.70;;;;;;;;;;4991734;28;20054;-48
2021/07/26 07:36:24;;;;;;;9.95;5.10;;;;;;;;;;4990380;28;20046;-48
2021/07/26 07:38:51;;;;;;;6.70;4.68;;;;;;;;;;4989726;28;20066;-48
2021/07/26 07:41:18;;;;;;;6.90;4.65;;;;;;;;;;5007835;28;20551;-46
2021/07/26 07:43:45;;;;;;;6.40;3.80;;;;;;;;;;4998788;28;20062;-48
2021/07/26 07:46:12;;;;;;;9.80;4.22;;;;;;;;;;4991949;28;20118;-45
2021/07/26 07:48:39;;;;;;;5.88;4.20;;;;;;;;;;4990716;28;20137;-46
2021/07/26 07:51:08;;;;;;;7.95;4.53;;;;;;;;;;4991872;28;20083;-44
2021/07/26 07:53:35;;;;;;;7.85;4.15;;;;;;;;;;4991680;28;20596;-48
2021/07/26 07:56:03;;;;;;;10.02;4.30;;;;;;;;;;4991600;28;20488;-47
2021/07/26 07:58:29;;;;;;;8.40;4.38;;;;;;;;;;4981573;28;20125;-47
2021/07/26 08:00:56;;;;;;;5.25;4.10;;;;;;;;;;4997419;28;20428;-45
2021/07/26 08:03:26;;;;;;;5.18;4.03;;;;;;;;;;4991830;28;20042;-46
2021/07/26 08:05:53;;;;;;;5.90;4.30;;;;;;;;;;4991442;28;20074;-43
2021/07/26 08:08:20;;;;;;;7.05;4.32;;;;;;;;;;4991098;28;20073;-45
2021/07/26 08:10:47;;;;;;;6.20;4.32;;;;;;;;;;4992982;28;20050;-48
2021/07/26 08:13:20;;;;;;;8.07;4.78;;;;;;;;;;4991348;28;20101;-45
2021/07/26 08:15:49;;;;;;;5.53;3.90;;;;;;;;;;4992144;28;20047;-50
2021/07/26 08:18:16;;;;;;;6.32;3.92;;;;;;;;;;4983013;28;20069;-46
2021/07/26 08:20:42;;;;;;;7.18;3.95;;;;;;;;;;4991086;28;20141;-46
2021/07/26 08:23:10;;;;;;;6.60;4.65;;;;;;;;;;4991404;28;20066;-45
2021/07/26 08:25:36;;;;;;;12.05;5.13;;;;;;;;;;4990395;28;20130;-49
2021/07/26 08:28:03;;;;;;;6.57;4.15;;;;;;;;;;4991247;28;20058;-47
2021/07/26 08:30:31;;;;;;;6.50;4.47;;;;;;;;;;4991010;28;20121;-46
2021/07/26 08:33:03;;;;;;;5.50;4.00;;;;;;;;;;4989715;28;20496;-45
2021/07/26 08:35:29;;;;;;;7.05;4.10;;;;;;;;;;4990190;28;20038;-47
2021/07/26 08:37:57;;;;;;;6.68;4.30;;;;;;;;;;4990622;28;20517;-49
2021/07/26 08:40:24;;;;;;;6.05;4.22;;;;;;;;;;4974074;28;20039;-45
2021/07/26 08:42:51;;;;;;;6.65;4.25;;;;;;;;;;4996694;28;20141;-46
2021/07/26 08:45:18;;;;;;;4.90;4.22;;;;;;;;;;4997603;28;20445;-46
2021/07/26 08:47:46;;;;;;;6.10;4.20;;;;;;;;;;4987605;28;20058;-45
2021/07/26 08:50:16;;;;;;;6.55;3.75;;;;;;;;;;5003529;28;20046;-48
2021/07/26 08:52:44;;;;;;;7.22;4.25;;;;;;;;;;4992098;28;20039;-44
2021/07/26 08:55:11;;;;;;;5.82;3.80;;;;;;;;;;4991952;28;20538;-45
2021/07/26 08:57:42;;;;;;;5.28;4.32;;;;;;;;;;5000005;28;20050;-48
2021/07/26 09:00:10;;;;;;;7.53;4.00;;;;;;;;;;4995013;28;20340;-45
2021/07/26 09:02:48;;;;;;;9.43;4.70;;;;;;;;;;5008734;28;20038;-48
2021/07/26 09:05:15;;;;;;;6.45;5.50;;;;;;;;;;5013426;28;20117;-48
2021/07/26 09:07:43;;;;;;;6.97;5.22;;;;;;;;;;5002578;28;20121;-47
2021/07/26 09:10:14;;;;;;;8.43;5.25;;;;;;;;;;5001485;28;20458;-47
2021/07/26 09:12:41;;;;;;;7.68;5.25;;;;;;;;;;5005995;28;20523;-48
2021/07/26 09:15:30;;;;;;;11.70;4.80;;;;;;;;;;5013179;28;20486;-46
2021/07/26 09:17:58;;;;;;;8.48;4.85;;;;;;;;;;4984946;28;20128;-49
2021/07/26 09:20:28;;;;;;;8.10;4.97;;;;;;;;;;4991153;28;20096;-45
2021/07/26 09:22:57;;;;;;;5.80;4.70;;;;;;;;;;4999152;28;20084;-45
2021/07/26 09:25:28;;;;;;;6.35;4.93;;;;;;;;;;4993175;28;20074;-46
2021/07/26 09:28:01;;;;;;;8.30;5.40;;;;;;;;;;4986233;28;20066;-46
2021/07/26 09:30:31;;;;;;;6.63;4.80;;;;;;;;;;4985889;28;20587;-46
2021/07/26 09:32:59;;;;;;;6.72;5.22;;;;;;;;;;4992373;28;20149;-48
2021/07/26 09:35:26;;;;;;;5.90;4.50;;;;;;;;;;4995233;28;20050;-49
2021/07/26 09:38:02;;;;;;;6.18;4.63;;;;;;;;;;5003899;28;20046;-45
2021/07/26 09:40:33;;;;;;;8.27;5.05;;;;;;;;;;5007234;28;20099;-47
2021/07/26 09:43:14;;;;;;;8.32;5.28;;;;;;;;;;5004375;28;20329;-47
2021/07/26 09:45:41;;;;;;;6.68;4.38;;;;;;;;;;5010846;28;20125;-47
2021/07/26 09:48:10;;;;;;;6.60;5.80;;;;;;;;;;4997076;28;20069;-47
2021/07/26 09:50:38;;;;;;;8.00;5.45;;;;;;;;;;4998314;28;20046;-47
2021/07/26 09:53:11;;;;;;;9.65;5.15;;;;;;;;;;5012279;28;20136;-48
2021/07/26 09:55:41;;;;;;;8.57;5.88;;;;;;;;;;4992789;28;20047;-48
2021/07/26 09:58:09;;;;;;;7.40;5.18;;;;;;;;;;4991145;28;20112;-45
2021/07/26 10:00:37;;;;;;;8.48;5.30;;;;;;;;;;4992363;28;20046;-45
2021/07/26 10:03:05;;;;;;;6.35;4.80;;;;;;;;;;4992797;28;20098;-44
2021/07/26 10:05:33;;;;;;;9.10;5.78;;;;;;;;;;4993464;28;20459;-46
2021/07/26 10:08:01;;;;;;;7.97;5.07;;;;;;;;;;4992461;28;20133;-49
2021/07/26 10:10:28;;;;;;;8.85;5.00;;;;;;;;;;4987574;28;20078;-49
2021/07/26 10:12:55;;;;;;;8.48;5.25;;;;;;;;;;4992628;28;20050;-47
2021/07/26 10:15:22;;;;;;;9.18;5.60;;;;;;;;;;4992123;28;20546;-48
2021/07/26 10:17:49;;;;;;;8.98;5.25;;;;;;;;;;4991906;28;20158;-52
2021/07/26 10:20:19;;;;;;;8.05;4.75;;;;;;;;;;4991502;28;20101;-50
2021/07/26 10:22:55;;;;;;;8.38;4.88;;;;;;;;;;4993976;28;20499;-47
2021/07/26 10:25:43;;;;;;;9.32;5.05;;;;;;;;;;4993063;28;20046;-50
2021/07/26 10:28:15;;;;;;;7.15;4.65;;;;;;;;;;4986902;28;20130;-48
2021/07/26 10:30:42;;;;;;;6.88;4.20;;;;;;;;;;5000424;28;20053;-48
2021/07/26 10:33:09;;;;;;;7.68;4.85;;;;;;;;;;4991943;28;20472;-49
2021/07/26 10:35:37;;;;;;;9.48;5.25;;;;;;;;;;4992837;28;20496;-49
2021/07/26 10:38:05;;;;;;;6.53;5.25;;;;;;;;;;4988962;28;20047;-49
2021/07/26 10:40:35;;;;;;;7.63;4.93;;;;;;;;;;5003622;28;20050;-45
2021/07/26 10:43:03;;;;;;;5.18;4.30;;;;;;;;;;4992754;28;20092;-47
2021/07/26 10:45:33;;;;;;;7.75;5.05;;;;;;;;;;4993533;28;20074;-46
2021/07/26 10:48:18;;;;;;;8.75;4.88;;;;;;;;;;4983355;28;20147;-49
2021/07/26 10:50:46;;;;;;;7.38;4.50;;;;;;;;;;4994429;28;20058;-46
2021/07/26 10:53:31;;;;;;;7.55;3.97;;;;;;;;;;4992207;28;20046;-47
2021/07/26 10:56:06;;;;;;;6.15;3.80;;;;;;;;;;4992328;28;20043;-46
2021/07/26 10:58:38;;;;;;;5.05;3.47;;;;;;;;;;4976268;28;20114;-46
2021/07/26 11:01:20;;;;;;;6.07;3.95;;;;;;;;;;4984527;28;20051;-49
2021/07/26 11:03:47;;;;;;;6.63;4.07;;;;;;;;;;4991478;28;20057;-53
2021/07/26 11:06:33;;;;;;;5.32;3.75;;;;;;;;;;4993029;28;20038;-49
2021/07/26 11:09:18;;;;;;;6.78;4.35;;;;;;;;;;4997057;28;20477;-50
2021/07/26 11:11:45;;;;;;;5.57;4.50;;;;;;;;;;4990876;28;20038;-46
2021/07/26 11:14:14;;;;;;;5.82;4.05;;;;;;;;;;5008356;28;20065;-46
2021/07/26 11:16:58;;;;;;;7.30;4.72;;;;;;;;;;4999869;28;20050;-45
2021/07/26 11:19:31;;;;;;;10.95;4.65;;;;;;;;;;4991320;28;20194;-46
2021/07/26 11:21:58;;;;;;;6.03;3.92;;;;;;;;;;4991915;28;20065;-48
2021/07/26 11:24:44;;;;;;;6.85;4.07;;;;;;;;;;4992073;28;20034;-51
2021/07/26 11:27:12;;;;;;;5.20;3.30;;;;;;;;;;4980117;28;20042;-51
2021/07/26 11:29:39;;;;;;;6.00;3.60;;;;;;;;;;4984830;28;20042;-49
2021/07/26 11:32:05;;;;;;;6.28;4.07;;;;;;;;;;4982980;28;20077;-49
2021/07/26 11:34:36;;;;;;;6.47;3.97;;;;;;;;;;4995575;28;20046;-51
2021/07/26 11:37:15;;;;;;;5.70;4.18;;;;;;;;;;4991906;28;20069;-53
2021/07/26 11:39:46;;;;;;;5.20;3.88;;;;;;;;;;4991395;28;20062;-49
2021/07/26 11:42:13;;;;;;;7.15;3.92;;;;;;;;;;4989430;28;20034;-47
2021/07/26 11:44:45;;;;;;;8.30;4.03;;;;;;;;;;5007596;28;20033;-48
2021/07/26 11:47:12;;;;;;;6.88;4.45;;;;;;;;;;4987108;28;20117;-47
2021/07/26 11:49:53;;;;;;;6.55;3.80;;;;;;;;;;5004973;28;20555;-49
2021/07/26 11:52:20;;;;;;;4.68;3.88;;;;;;;;;;4991705;28;20038;-43
2021/07/26 11:54:47;;;;;;;6.93;4.30;;;;;;;;;;4992152;28;20063;-48
2021/07/26 11:57:14;;;;;;;5.63;4.15;;;;;;;;;;4973574;28;20045;-50
2021/07/26 11:59:48;;;;;;;4.88;3.90;;;;;;;;;;4982316;28;20050;-46
2021/07/26 12:02:22;;;;;;;4.70;3.63;;;;;;;;;;4991347;28;20488;-46
2021/07/26 12:04:49;;;;;;;7.68;4.28;;;;;;;;;;5007041;28;20043;-47
2021/07/26 12:07:19;;;;;;;9.35;3.90;;;;;;;;;;4987070;28;20077;-46
2021/07/26 12:09:50;;;;;;;5.63;3.55;;;;;;;;;;4983247;28;20061;-48
2021/07/26 12:12:17;;;;;;;6.65;3.92;;;;;;;;;;4990370;28;20141;-45
2021/07/26 12:14:44;;;;;;;8.52;3.97;;;;;;;;;;4987806;28;20063;-47
2021/07/26 12:17:12;;;;;;;6.90;4.53;;;;;;;;;;4990851;28;20089;-46
2021/07/26 12:19:40;;;;;;;7.22;3.97;;;;;;;;;;4997426;28;20479;-48
2021/07/26 12:22:14;;;;;;;4.50;3.58;;;;;;;;;;4991523;28;20034;-45
2021/07/26 12:25:00;;;;;;;6.32;4.30;;;;;;;;;;4981020;28;20535;-48
2021/07/26 12:27:34;;;;;;;5.97;4.07;;;;;;;;;;4986595;28;20070;-48
2021/07/26 12:30:01;;;;;;;5.00;3.83;;;;;;;;;;4973132;28;20130;-46
2021/07/26 12:32:31;;;;;;;6.00;4.30;;;;;;;;;;4978162;28;20042;-45
2021/07/26 12:35:10;;;;;;;30.85;7.32;;;;;;;;;;4989511;28;20048;-46
2021/07/26 12:37:37;;;;;;;10.63;4.90;;;;;;;;;;4989751;28;20590;-46
2021/07/26 12:40:10;;;;;;;6.65;4.18;;;;;;;;;;4994174;28;20100;-47
2021/07/26 12:42:37;;;;;;;7.43;4.30;;;;;;;;;;4997064;28;20076;-47
2021/07/26 12:45:24;;;;;;;9.15;4.85;;;;;;;;;;4987905;28;20053;-44
2021/07/26 12:47:54;;;;;;;9.32;4.03;;;;;;;;;;4995623;28;20431;-44
2021/07/26 12:50:20;;;;;;;7.10;3.97;;;;;;;;;;4996004;28;20092;-44
2021/07/26 12:52:47;;;;;;;6.82;4.28;;;;;;;;;;4997180;28;20054;-46
2021/07/26 12:55:15;;;;;;;5.68;4.22;;;;;;;;;;4999490;28;20096;-43
2021/07/26 12:57:42;;;;;;;6.80;4.50;;;;;;;;;;4992435;28;20165;-43
2021/07/26 13:00:19;;;;;;;5.32;4.15;;;;;;;;;;4983333;28;20043;-43
2021/07/26 13:02:45;;;;;;;8.20;4.50;;;;;;;;;;5003415;28;20066;-42
2021/07/26 13:05:14;;;;;;;21.58;5.15;;;;;;;;;;5028290;28;20505;-43
2021/07/26 13:07:41;;;;;;;8.77;4.35;;;;;;;;;;5007704;28;20034;-43
2021/07/26 13:10:08;;;;;;;5.90;3.95;;;;;;;;;;4980056;28;20130;-46
2021/07/26 13:12:35;;;;;;;12.15;4.43;;;;;;;;;;5012675;28;20103;-45
2021/07/26 13:15:03;;;;;;;7.03;3.53;;;;;;;;;;4998078;28;20057;-47
2021/07/26 13:17:30;;;;;;;7.65;4.38;;;;;;;;;;5002318;28;20065;-43
2021/07/26 13:19:56;;;;;;;7.82;4.03;;;;;;;;;;4999477;28;20125;-45
2021/07/26 13:22:23;;;;;;;8.68;4.13;;;;;;;;;;5013186;28;20054;-43
2021/07/26 13:24:51;;;;;;;6.07;3.80;;;;;;;;;;5009269;28;20038;-43
2021/07/26 13:27:22;;;;;;;7.93;4.22;;;;;;;;;;4997598;28;20047;-45
2021/07/26 13:29:49;;;;;;;7.30;4.40;;;;;;;;;;4994446;28;20054;-47
2021/07/26 13:32:22;;;;;;;8.93;4.13;;;;;;;;;;5010384;28;20200;-44
2021/07/26 13:34:49;;;;;;;6.13;3.95;;;;;;;;;;5012133;28;20053;-47
2021/07/26 13:37:16;;;;;;;6.30;3.92;;;;;;;;;;5008154;28;20042;-42
2021/07/26 13:39:43;;;;;;;5.80;3.50;;;;;;;;;;4995484;28;20078;-46
2021/07/26 13:42:09;;;;;;;5.85;4.03;;;;;;;;;;5000845;28;20042;-46
2021/07/26 13:44:36;;;;;;;4.68;3.58;;;;;;;;;;5007718;28;20038;-47
2021/07/26 13:47:03;;;;;;;8.65;4.93;;;;;;;;;;5000612;28;20403;-46
2021/07/26 13:49:31;;;;;;;5.35;3.38;;;;;;;;;;4986394;28;20052;-49
2021/07/26 13:51:58;;;;;;;7.13;4.40;;;;;;;;;;4998377;28;20141;-48
2021/07/26 13:54:25;;;;;;;6.47;4.15;;;;;;;;;;5004560;28;20055;-47
2021/07/26 13:56:51;;;;;;;5.75;4.35;;;;;;;;;;4992565;28;20101;-49
2021/07/26 13:59:18;;;;;;;5.03;3.67;;;;;;;;;;5000351;28;20043;-50
2021/07/26 14:01:45;;;;;;;6.35;4.00;;;;;;;;;;4974833;28;20427;-48
2021/07/26 14:04:12;;;;;;;6.28;3.80;;;;;;;;;;4995067;28;20109;-52
2021/07/26 14:06:38;;;;;;;6.45;3.78;;;;;;;;;;5008849;28;20149;-51
2021/07/26 14:09:05;;;;;;;6.35;4.10;;;;;;;;;;5008533;28;20042;-53
2021/07/26 14:11:34;;;;;;;5.90;3.72;;;;;;;;;;4997036;28;20788;-50
2021/07/26 14:14:01;;;;;;;6.82;3.90;;;;;;;;;;4974554;28;20530;-50
2021/07/26 14:16:29;;;;;;;6.53;3.90;;;;;;;;;;4974569;28;20081;-50
2021/07/26 14:18:56;;;;;;;6.93;4.20;;;;;;;;;;4973982;28;20500;-42
2021/07/26 14:21:23;;;;;;;7.32;4.07;;;;;;;;;;4974024;28;21003;-47
2021/07/26 14:23:50;;;;;;;8.07;3.40;;;;;;;;;;4972861;28;20046;-43
2021/07/26 14:26:17;;;;;;;5.57;3.92;;;;;;;;;;4974456;28;20130;-45
2021/07/26 14:28:43;;;;;;;6.65;3.60;;;;;;;;;;4973795;28;20151;-47
2021/07/26 14:31:10;;;;;;;5.25;4.30;;;;;;;;;;4974081;28;20078;-43
2021/07/26 14:33:37;;;;;;;5.47;4.43;;;;;;;;;;4974049;28;20039;-44
2021/07/26 14:36:22;;;;;;;6.97;3.70;;;;;;;;;;4974175;28;20059;-48
2021/07/26 14:38:48;;;;;;;6.50;3.85;;;;;;;;;;4973677;28;20039;-44
2021/07/26 14:41:15;;;;;;;4.80;3.53;;;;;;;;;;4974552;28;20093;-45
2021/07/26 14:43:42;;;;;;;5.43;3.47;;;;;;;;;;4974025;28;20071;-44
2021/07/26 14:46:09;;;;;;;6.03;3.72;;;;;;;;;;4973670;28;20393;-42
2021/07/26 14:48:36;;;;;;;5.60;3.70;;;;;;;;;;4973428;28;20066;-43
2021/07/26 14:51:03;;;;;;;5.63;3.83;;;;;;;;;;4974048;28;20046;-45